Main page
METAR-TAF:

METAR-TAF

Airports :

Kish, Iran

Kish International Airport

latitude: 26-31-36N, longitude: 053-58-54E, elevation: 30 m

Current weather observation

The report was made 15 minutes ago, at 17:00 UTC
Wind 10 kt from the Northwest
Temperature 31°C
Humidity 89%
Pressure 997 hPa
Visibility: 7000 m

METAR: OIBK 261700Z 31010KT 7000 NSC 31/29 Q0997

Time: 21:45 (17:15 UTC)

Forecast

The report was made 6 hours and 15 minutes ago, at 11:00 UTC
Forecast valid from 26 at 12 UTC to 27 at 18 UTC
Wind 10 kt from the West/Northwest
Visibility: 7000 m
Becoming
from 26 at 22 UTC to 27 at 00 UTC
Wind 6 kt from the North/Northeast
Visibility: 3000 m
mist
Becoming
from 27 at 05 UTC to 27 at 07 UTC
Wind 10 kt from the West
Visibility: 7000 m

TAF: OIBK 261100Z 2612/2718 29005MPS 7000 NSC BECMG 2622/2700 02003MPS 3000 BR BECMG 2705/2707 26005MPS 7000 NSC

Weather observations and forecasts of more than 4000 airports (METAR and TAF reports).

The available stations are represented by yellow and red dots on the map.

Hover mouse over dot to see the name of the station.

Then click to see weather observations and forecasts.

To change the map : click on the green buttons with a black cross to zoom in, on the green button with a dash to zoom out, or on the green arrows for adjacent maps.


METAR-TAF: